createdAt,value
2019-02-12T00:00:58.143Z,13.70
2019-02-12T00:03:25.393Z,21.60
2019-02-12T00:05:52.668Z,10.77
2019-02-12T00:08:19.947Z,19.93
2019-02-12T00:10:47.187Z,22.30
2019-02-12T00:13:14.465Z,17.90
2019-02-12T00:15:41.717Z,15.30
2019-02-12T00:18:08.992Z,13.07
2019-02-12T00:20:36.240Z,16.53
2019-02-12T00:23:03.514Z,19.83
2019-02-12T00:25:30.767Z,16.87
2019-02-12T00:27:58.041Z,26.77
2019-02-12T00:30:25.294Z,26.47
2019-02-12T00:32:52.574Z,21.17
2019-02-12T00:35:20.124Z,15.87
2019-02-12T00:37:47.371Z,20.47
2019-02-12T00:40:14.645Z,21.37
2019-02-12T00:42:41.926Z,15.70
2019-02-12T00:45:09.678Z,24.70
2019-02-12T00:47:36.923Z,23.33
2019-02-12T00:50:05.318Z,23.87
2019-02-12T00:52:32.598Z,31.27
2019-02-12T00:54:59.952Z,17.93
2019-02-12T00:57:27.227Z,25.40
2019-02-12T00:59:54.469Z,18.63
2019-02-12T01:02:21.751Z,19.57
2019-02-12T01:04:49.002Z,18.17
2019-02-12T01:07:16.279Z,24.27
2019-02-12T01:09:43.778Z,20.17
2019-02-12T01:12:11.051Z,15.93
2019-02-12T01:14:38.333Z,22.87
2019-02-12T01:17:05.586Z,22.17
2019-02-12T01:19:32.830Z,18.83
2019-02-12T01:22:00.110Z,17.77
2019-02-12T01:24:27.346Z,21.50
2019-02-12T01:26:54.631Z,17.27
2019-02-12T01:29:22.131Z,21.53
2019-02-12T01:31:49.406Z,19.57
2019-02-12T01:34:16.652Z,20.00
2019-02-12T01:36:43.926Z,18.60
2019-02-12T01:39:11.342Z,38.60
2019-02-12T01:41:38.626Z,23.30
2019-02-12T01:44:05.869Z,24.93
2019-02-12T01:46:33.160Z,19.77
2019-02-12T01:49:00.402Z,23.43
2019-02-12T01:51:34.949Z,17.93
2019-02-12T01:53:56.674Z,15.37
2019-02-12T01:56:24.174Z,18.90
2019-02-12T01:58:51.447Z,18.20
2019-02-12T02:01:18.742Z,20.53
2019-02-12T02:03:46.052Z,27.57
2019-02-12T02:06:13.378Z,23.80
2019-02-12T02:08:40.743Z,16.93
2019-02-12T02:11:07.978Z,17.30
2019-02-12T02:13:35.518Z,22.83
2019-02-12T02:16:02.794Z,12.97
2019-02-12T02:18:30.042Z,15.67
2019-02-12T02:20:57.581Z,15.70
2019-02-12T02:23:24.834Z,20.00
2019-02-12T02:25:52.109Z,21.07
2019-02-12T02:28:19.352Z,20.43
2019-02-12T02:30:46.601Z,17.73
2019-02-12T02:33:13.950Z,23.80
2019-02-12T02:35:41.225Z,21.83
2019-02-12T02:38:08.506Z,26.23
2019-02-12T02:40:35.745Z,21.20
2019-02-12T02:43:03.031Z,14.60
2019-02-12T02:45:30.284Z,22.30
2019-02-12T02:47:57.562Z,15.10
2019-02-12T02:50:24.812Z,23.40
2019-02-12T02:52:52.091Z,17.93
2019-02-12T02:55:19.338Z,21.33
2019-02-12T02:57:46.621Z,16.03
2019-02-12T03:00:13.871Z,14.13
2019-02-12T03:02:41.146Z,21.53
2019-02-12T03:05:09.568Z,19.07
2019-02-12T03:07:37.089Z,25.30
2019-02-12T03:10:05.050Z,29.23
2019-02-12T03:12:32.628Z,19.80
2019-02-12T03:15:00.273Z,20.27
2019-02-12T03:17:27.578Z,27.37
2019-02-12T03:19:55.111Z,17.00
2019-02-12T03:22:22.397Z,19.27
2019-02-12T03:24:49.916Z,21.90
2019-02-12T03:27:17.195Z,19.63
2019-02-12T03:29:44.445Z,19.73
2019-02-12T03:32:11.719Z,17.07
2019-02-12T03:34:38.966Z,28.87
2019-02-12T03:37:06.238Z,15.90
2019-02-12T03:39:33.515Z,26.47
2019-02-12T03:42:00.845Z,15.70
2019-02-12T03:44:28.099Z,18.53
2019-02-12T03:46:55.367Z,20.10
2019-02-12T03:49:22.648Z,21.17
2019-02-12T03:51:50.189Z,17.93
2019-02-12T03:54:17.785Z,14.17
2019-02-12T03:56:45.103Z,23.93
2019-02-12T03:59:12.378Z,14.73
2019-02-12T04:01:39.631Z,22.47
2019-02-12T04:04:06.966Z,14.63
2019-02-12T04:06:34.243Z,25.43
2019-02-12T04:09:01.516Z,16.73
2019-02-12T04:11:28.787Z,18.53
2019-02-12T04:13:56.065Z,16.60
2019-02-12T04:16:23.570Z,25.20
2019-02-12T04:18:50.840Z,23.03
2019-02-12T04:21:18.117Z,11.50
2019-02-12T04:23:45.434Z,18.37
2019-02-12T04:26:12.725Z,21.77
2019-02-12T04:28:40.006Z,23.47
2019-02-12T04:31:07.537Z,18.50
2019-02-12T04:33:34.866Z,22.40
2019-02-12T04:36:02.115Z,17.23
2019-02-12T04:38:29.370Z,17.40
2019-02-12T04:40:56.634Z,28.57
2019-02-12T04:43:23.882Z,20.97
2019-02-12T04:45:51.149Z,16.70
2019-02-12T04:48:18.462Z,15.13
2019-02-12T04:50:45.737Z,24.97
2019-02-12T04:53:12.991Z,21.00
2019-02-12T04:55:40.266Z,28.30
2019-02-12T04:58:07.523Z,22.80
2019-02-12T05:00:34.807Z,20.13
2019-02-12T05:03:02.051Z,23.73
2019-02-12T05:05:29.327Z,23.93
2019-02-12T05:07:56.575Z,17.67
2019-02-12T05:10:25.400Z,16.37
2019-02-12T05:12:52.713Z,17.53
2019-02-12T05:15:19.986Z,25.60
2019-02-12T05:17:47.267Z,25.00
2019-02-12T05:20:14.591Z,17.63
2019-02-12T05:22:43.585Z,23.27
2019-02-12T05:25:10.939Z,19.40
2019-02-12T05:27:38.212Z,32.47
2019-02-12T05:30:07.027Z,20.57
2019-02-12T05:32:34.280Z,12.53
2019-02-12T05:35:01.555Z,13.43
2019-02-12T05:37:28.799Z,24.63
2019-02-12T05:39:56.081Z,15.73
2019-02-12T05:42:23.328Z,24.13
2019-02-12T05:44:50.599Z,29.33
2019-02-12T05:47:17.883Z,15.37
2019-02-12T05:49:45.138Z,18.45
2019-02-12T05:52:12.390Z,13.40
2019-02-12T05:54:39.682Z,20.40
2019-02-12T05:57:06.937Z,15.63
2019-02-12T05:59:34.517Z,13.53
2019-02-12T06:02:01.792Z,17.77
2019-02-12T06:04:29.063Z,15.20
2019-02-12T06:06:56.334Z,21.87
2019-02-12T06:09:23.624Z,17.90
2019-02-12T06:11:50.872Z,15.13
2019-02-12T06:14:18.123Z,14.80
2019-02-12T06:16:45.662Z,19.40
2019-02-12T06:19:13.018Z,19.23
2019-02-12T06:21:40.345Z,11.53
2019-02-12T06:24:07.763Z,18.43
2019-02-12T06:26:35.325Z,12.73
2019-02-12T06:29:02.749Z,17.57
2019-02-12T06:31:30.013Z,20.40
2019-02-12T06:33:57.290Z,14.40
2019-02-12T06:36:24.565Z,15.40
2019-02-12T06:38:51.810Z,17.93
2019-02-12T06:41:19.091Z,16.43
2019-02-12T06:43:46.334Z,12.17
2019-02-12T06:46:13.606Z,16.87
2019-02-12T06:48:41.117Z,15.80
2019-02-12T06:51:08.393Z,17.43
2019-02-12T06:53:35.915Z,13.47
2019-02-12T06:56:03.165Z,15.67
2019-02-12T06:58:30.446Z,11.80
2019-02-12T07:00:57.714Z,16.17
2019-02-12T07:03:24.978Z,15.63
2019-02-12T07:06:00.075Z,23.57
2019-02-12T07:08:43.983Z,10.73
2019-02-12T07:11:29.072Z,16.60
2019-02-12T07:14:06.959Z,15.20
2019-02-12T07:16:35.770Z,15.03
2019-02-12T07:19:07.288Z,15.53
2019-02-12T07:21:45.084Z,12.67
2019-02-12T07:24:19.567Z,19.37
2019-02-12T07:26:48.362Z,14.13
2019-02-12T07:29:20.330Z,12.93
2019-02-12T07:32:05.378Z,12.87
2019-02-12T07:34:42.979Z,15.03
2019-02-12T07:37:14.806Z,21.87
2019-02-12T07:39:43.616Z,18.90
2019-02-12T07:42:15.093Z,14.20
2019-02-12T07:44:43.876Z,18.83
2019-02-12T07:47:18.353Z,15.87
2019-02-12T07:50:02.192Z,18.43
2019-02-12T07:52:31.264Z,18.13
2019-02-12T07:55:16.570Z,14.60
2019-02-12T07:57:45.386Z,18.67
2019-02-12T08:00:17.385Z,20.07
2019-02-12T08:02:46.163Z,16.90
2019-02-12T08:05:31.253Z,13.47
2019-02-12T08:08:02.739Z,18.13
2019-02-12T08:10:48.454Z,17.80
2019-02-12T08:13:17.341Z,15.60
2019-02-12T08:15:46.130Z,22.60
2019-02-12T08:18:23.715Z,19.73
2019-02-12T08:20:58.534Z,17.27
2019-02-12T08:23:41.076Z,17.53
2019-02-12T08:26:06.452Z,18.30
2019-02-12T08:28:35.267Z,27.10
2019-02-12T08:31:20.593Z,12.77
2019-02-12T08:33:52.312Z,9.00
2019-02-12T08:36:21.198Z,19.33
2019-02-12T08:38:52.682Z,25.87
2019-02-12T08:41:27.389Z,12.10
2019-02-12T08:44:07.877Z,18.63
2019-02-12T08:46:39.319Z,17.17
2019-02-12T08:49:10.819Z,19.67
2019-02-12T08:51:39.650Z,16.47
2019-02-12T08:54:17.384Z,17.10
2019-02-12T08:56:46.427Z,12.73
2019-02-12T08:59:15.233Z,13.97
2019-02-12T09:01:49.700Z,14.37
2019-02-12T09:04:24.410Z,29.63
2019-02-12T09:07:02.154Z,17.33
2019-02-12T09:09:47.420Z,12.97
2019-02-12T09:12:16.226Z,14.40
2019-02-12T09:14:45.050Z,18.90
2019-02-12T09:17:13.844Z,18.73
2019-02-12T09:19:42.624Z,15.80
2019-02-12T09:22:14.115Z,14.80
2019-02-12T09:24:51.914Z,15.50
2019-02-12T09:27:29.836Z,13.60
2019-02-12T09:30:15.131Z,23.03
2019-02-12T09:32:44.209Z,12.07
2019-02-12T09:35:12.996Z,15.97
2019-02-12T09:37:56.606Z,13.60
2019-02-12T09:40:28.313Z,15.73
2019-02-12T09:43:12.181Z,10.80
2019-02-12T09:45:43.654Z,14.93
2019-02-12T09:48:12.547Z,13.17
2019-02-12T09:50:41.358Z,21.13
2019-02-12T09:53:12.822Z,16.33
2019-02-12T09:55:41.634Z,25.73
2019-02-12T09:58:13.084Z,24.70
2019-02-12T10:00:42.138Z,17.93
2019-02-12T10:03:13.613Z,14.00
2019-02-12T10:05:42.634Z,12.67
2019-02-12T10:08:27.627Z,14.10
2019-02-12T10:11:08.218Z,13.60
2019-02-12T10:13:37.093Z,14.20
2019-02-12T10:16:05.886Z,15.20
2019-02-12T10:18:52.818Z,12.77
2019-02-12T10:21:21.622Z,26.13
2019-02-12T10:23:50.406Z,19.20
2019-02-12T10:26:27.893Z,22.57
2019-02-12T10:29:12.939Z,19.10
2019-02-12T10:31:42.642Z,15.97
2019-02-12T10:34:10.391Z,11.40
2019-02-12T10:36:37.665Z,8.00
2019-02-12T10:39:06.868Z,17.57
2019-02-12T10:41:34.130Z,13.07
2019-02-12T10:44:01.414Z,20.70
2019-02-12T10:46:28.663Z,14.80
2019-02-12T10:48:55.938Z,17.50
2019-02-12T10:51:23.450Z,11.50
2019-02-12T10:53:50.725Z,12.37
2019-02-12T10:56:17.974Z,17.17
2019-02-12T10:58:45.251Z,15.00
2019-02-12T11:01:12.525Z,11.37
2019-02-12T11:03:39.773Z,14.30
2019-02-12T11:06:07.299Z,15.60
2019-02-12T11:08:34.573Z,8.90
2019-02-12T11:11:01.837Z,15.40
2019-02-12T11:13:29.093Z,12.37
2019-02-12T11:15:56.371Z,13.87
2019-02-12T11:18:23.618Z,10.80
2019-02-12T11:20:51.159Z,7.27
2019-02-12T11:23:18.469Z,13.10
2019-02-12T11:25:45.746Z,9.20
2019-02-12T11:28:13.246Z,13.40
2019-02-12T11:30:40.781Z,13.73
2019-02-12T11:33:08.044Z,11.53
2019-02-12T11:35:36.909Z,15.23
2019-02-12T11:38:04.342Z,14.67
2019-02-12T11:40:31.595Z,11.10
2019-02-12T11:42:58.847Z,10.40
2019-02-12T11:45:26.188Z,16.33
2019-02-12T11:47:53.440Z,9.60
2019-02-12T11:50:20.706Z,8.70
2019-02-12T11:52:47.954Z,16.03
2019-02-12T11:55:15.489Z,16.73
2019-02-12T11:57:42.731Z,10.33
2019-02-12T12:00:11.281Z,10.70
2019-02-12T12:02:41.925Z,12.47
2019-02-12T12:05:08.357Z,22.50
2019-02-12T12:07:35.879Z,19.00
2019-02-12T12:10:03.622Z,12.37
2019-02-12T12:12:30.889Z,11.00
2019-02-12T12:14:58.137Z,12.00
2019-02-12T12:17:25.414Z,9.07
2019-02-12T12:19:52.670Z,13.60
2019-02-12T12:22:19.951Z,9.07
2019-02-12T12:24:51.600Z,18.73
2019-02-12T12:27:16.481Z,15.00
2019-02-12T12:29:43.760Z,7.93
2019-02-12T12:32:11.001Z,10.73
2019-02-12T12:34:38.281Z,13.47
2019-02-12T12:37:05.632Z,17.30
2019-02-12T12:39:32.910Z,12.47
2019-02-12T12:42:00.181Z,16.77
2019-02-12T12:44:27.426Z,17.30
2019-02-12T12:46:54.971Z,19.77
2019-02-12T12:49:22.211Z,13.87
2019-02-12T12:51:49.740Z,11.13
2019-02-12T12:54:16.994Z,14.23
2019-02-12T12:56:44.552Z,12.13
2019-02-12T12:59:11.797Z,11.23
2019-02-12T13:01:39.084Z,9.23
2019-02-12T13:04:06.415Z,11.07
2019-02-12T13:06:33.919Z,9.33
2019-02-12T13:09:01.437Z,6.40
2019-02-12T13:11:28.758Z,9.50
2019-02-12T13:13:56.038Z,20.57
2019-02-12T13:16:23.278Z,14.60
2019-02-12T13:18:50.805Z,9.93
2019-02-12T13:21:18.053Z,10.53
2019-02-12T13:23:45.342Z,10.90
2019-02-12T13:26:12.600Z,13.70
2019-02-12T13:28:39.843Z,10.03
2019-02-12T13:31:07.370Z,9.90
2019-02-12T13:33:34.642Z,7.30
2019-02-12T13:36:01.919Z,12.73
2019-02-12T13:38:29.168Z,6.77
2019-02-12T13:40:56.697Z,13.30
2019-02-12T13:43:24.194Z,8.47
2019-02-12T13:45:51.463Z,6.83
2019-02-12T13:48:18.733Z,7.57
2019-02-12T13:50:45.967Z,9.03
2019-02-12T13:53:13.238Z,6.90
2019-02-12T13:55:40.506Z,9.73
2019-02-12T13:58:07.778Z,10.87
2019-02-12T14:00:35.593Z,17.80
2019-02-12T14:03:02.841Z,11.57
2019-02-12T14:05:30.167Z,13.50
2019-02-12T14:07:57.507Z,15.30
2019-02-12T14:10:24.795Z,6.13
2019-02-12T14:12:52.327Z,10.17
2019-02-12T14:15:19.828Z,8.73
2019-02-12T14:17:47.330Z,12.77
2019-02-12T14:20:15.450Z,14.03
2019-02-12T14:22:42.768Z,5.70
2019-02-12T14:25:13.413Z,8.60
2019-02-12T14:27:40.695Z,14.83
2019-02-12T14:30:14.785Z,6.00
2019-02-12T14:32:42.090Z,7.70
2019-02-12T14:35:10.341Z,5.10
2019-02-12T14:37:37.625Z,10.40
2019-02-12T14:40:06.662Z,5.30
2019-02-12T14:42:33.939Z,6.20
2019-02-12T14:45:01.218Z,8.80
2019-02-12T14:47:28.481Z,9.73
2019-02-12T14:49:55.734Z,9.13
2019-02-12T14:52:23.271Z,9.23
2019-02-12T14:54:50.633Z,29.60
2019-02-12T14:57:17.902Z,8.87
2019-02-12T14:59:45.178Z,12.90
2019-02-12T15:02:13.308Z,7.60
2019-02-12T15:04:40.577Z,10.00
2019-02-12T15:07:07.855Z,8.63
2019-02-12T15:09:35.099Z,11.40
2019-02-12T15:12:02.624Z,8.00
2019-02-12T15:14:29.866Z,9.93
2019-02-12T15:16:57.139Z,5.30
2019-02-12T15:19:24.382Z,8.57
2019-02-12T15:21:51.656Z,7.80
2019-02-12T15:24:18.906Z,3.40
2019-02-12T15:26:46.437Z,5.47
2019-02-12T15:29:13.683Z,16.60
2019-02-12T15:31:40.949Z,9.63
2019-02-12T15:34:08.223Z,5.40
2019-02-12T15:36:35.497Z,8.93
2019-02-12T15:39:04.378Z,8.43
2019-02-12T15:41:31.658Z,10.63
2019-02-12T15:43:59.162Z,8.23
2019-02-12T15:46:26.438Z,7.37
2019-02-12T15:48:53.980Z,12.13
2019-02-12T15:51:21.230Z,8.00
2019-02-12T15:53:48.510Z,10.50
2019-02-12T15:56:15.745Z,7.93
2019-02-12T15:58:42.990Z,9.17
2019-02-12T16:01:10.268Z,7.80
2019-02-12T16:03:38.220Z,8.23
2019-02-12T16:06:05.558Z,9.47
2019-02-12T16:08:32.835Z,7.80
2019-02-12T16:11:00.373Z,5.30
2019-02-12T16:13:27.613Z,9.17
2019-02-12T16:15:54.878Z,5.63
2019-02-12T16:18:22.913Z,11.60
2019-02-12T16:20:51.127Z,8.03
2019-02-12T16:23:18.662Z,17.53
2019-02-12T16:25:45.909Z,12.23
2019-02-12T16:28:13.190Z,6.87
2019-02-12T16:30:40.426Z,5.20
2019-02-12T16:33:07.963Z,10.77
2019-02-12T16:35:37.774Z,7.50
2019-02-12T16:38:05.322Z,7.20
2019-02-12T16:40:33.173Z,9.20
2019-02-12T16:43:00.620Z,8.00
2019-02-12T16:45:29.405Z,8.50
2019-02-12T16:47:56.675Z,7.50
2019-02-12T16:50:24.002Z,8.30
2019-02-12T16:52:51.247Z,6.50
2019-02-12T16:55:18.845Z,5.80
2019-02-12T16:57:46.206Z,6.00
2019-02-12T17:00:17.122Z,8.83
2019-02-12T17:02:44.622Z,4.27
2019-02-12T17:05:12.857Z,6.07
2019-02-12T17:07:40.099Z,8.53
2019-02-12T17:10:08.637Z,8.87
2019-02-12T17:12:35.888Z,7.30
2019-02-12T17:15:03.175Z,4.87
2019-02-12T17:17:30.438Z,5.97
2019-02-12T17:19:57.718Z,8.50
2019-02-12T17:22:24.955Z,4.30
2019-02-12T17:24:52.236Z,6.97
2019-02-12T17:27:19.506Z,4.73
2019-02-12T17:29:46.747Z,8.70
2019-02-12T17:32:14.945Z,8.60
2019-02-12T17:34:42.218Z,5.80
2019-02-12T17:37:09.770Z,4.70
2019-02-12T17:39:37.333Z,11.47
2019-02-12T17:42:04.715Z,8.77
2019-02-12T17:44:31.987Z,7.13
2019-02-12T17:46:59.583Z,5.97
2019-02-12T17:49:27.046Z,4.50
2019-02-12T17:51:54.314Z,6.57
2019-02-12T17:54:21.582Z,5.43
2019-02-12T17:56:49.698Z,6.17
2019-02-12T17:59:16.970Z,5.47
2019-02-12T18:01:44.214Z,6.70
2019-02-12T18:04:11.670Z,4.43
2019-02-12T18:06:39.337Z,6.83
2019-02-12T18:09:06.710Z,7.53
2019-02-12T18:11:34.098Z,4.20
2019-02-12T18:14:01.620Z,5.13
2019-02-12T18:16:29.014Z,6.33
2019-02-12T18:18:56.310Z,6.07
2019-02-12T18:21:23.570Z,8.30
2019-02-12T18:23:51.065Z,11.50
2019-02-12T18:26:18.457Z,6.40
2019-02-12T18:28:45.763Z,6.40
2019-02-12T18:31:13.030Z,4.80
2019-02-12T18:33:40.305Z,10.70
2019-02-12T18:36:07.554Z,7.77
2019-02-12T18:38:35.105Z,4.87
2019-02-12T18:41:02.339Z,5.50
2019-02-12T18:43:29.911Z,9.13
2019-02-12T18:45:58.526Z,6.27
2019-02-12T18:48:26.146Z,9.40
2019-02-12T18:50:53.421Z,6.93
2019-02-12T18:53:20.930Z,5.43
2019-02-12T18:55:51.096Z,7.27
2019-02-12T18:58:18.370Z,7.20
2019-02-12T19:00:45.645Z,4.00
2019-02-12T19:03:12.885Z,6.47
2019-02-12T19:05:40.157Z,9.13
2019-02-12T19:08:07.570Z,6.13
2019-02-12T19:10:34.864Z,6.87
2019-02-12T19:13:02.372Z,11.40
2019-02-12T19:15:29.907Z,11.43
2019-02-12T19:18:13.685Z,7.50
2019-02-12T19:20:41.054Z,7.63
2019-02-12T19:23:08.305Z,7.27
2019-02-12T19:25:35.555Z,13.20
2019-02-12T19:28:03.081Z,9.83
2019-02-12T19:30:30.400Z,7.33
2019-02-12T19:32:57.677Z,6.10
2019-02-12T19:35:24.941Z,4.87
2019-02-12T19:37:52.196Z,8.70
2019-02-12T19:40:19.461Z,8.43
2019-02-12T19:42:46.785Z,10.83
2019-02-12T19:45:14.732Z,3.27
2019-02-12T19:47:41.969Z,6.63
2019-02-12T19:50:09.786Z,5.43
2019-02-12T19:52:37.311Z,6.30
2019-02-12T19:55:05.854Z,5.20
2019-02-12T19:57:33.094Z,8.20
2019-02-12T20:00:00.379Z,7.60
2019-02-12T20:02:27.786Z,3.57
2019-02-12T20:04:55.068Z,6.07
2019-02-12T20:07:22.568Z,4.87
2019-02-12T20:09:49.815Z,6.00
2019-02-12T20:12:17.085Z,5.33
2019-02-12T20:14:44.332Z,8.10
2019-02-12T20:17:11.599Z,7.97
2019-02-12T20:19:38.874Z,6.87
2019-02-12T20:22:06.155Z,8.77
2019-02-12T20:24:33.435Z,6.53
2019-02-12T20:27:06.456Z,9.63
2019-02-12T20:29:29.645Z,7.37
2019-02-12T20:31:57.178Z,5.13
2019-02-12T20:34:24.427Z,7.40
2019-02-12T20:36:51.701Z,6.43
2019-02-12T20:39:20.075Z,6.40
2019-02-12T20:41:47.498Z,8.90
2019-02-12T20:44:14.737Z,5.83
2019-02-12T20:46:42.009Z,8.57
2019-02-12T20:49:09.512Z,6.60
2019-02-12T20:51:36.799Z,8.53
2019-02-12T20:54:04.290Z,4.90
2019-02-12T20:56:31.534Z,4.23
2019-02-12T20:58:59.063Z,6.03
2019-02-12T21:01:26.311Z,9.60
2019-02-12T21:03:53.586Z,8.87
2019-02-12T21:06:20.943Z,9.10
2019-02-12T21:08:48.302Z,9.17
2019-02-12T21:11:15.617Z,5.90
2019-02-12T21:13:42.867Z,9.63
2019-02-12T21:16:10.139Z,6.83
2019-02-12T21:18:37.388Z,6.27
2019-02-12T21:21:04.662Z,6.50
2019-02-12T21:23:31.936Z,5.40
2019-02-12T21:25:59.184Z,8.80
2019-02-12T21:28:26.424Z,5.30
2019-02-12T21:30:53.686Z,5.93
2019-02-12T21:33:21.190Z,6.97
2019-02-12T21:35:48.474Z,9.50
2019-02-12T21:38:16.084Z,7.57
2019-02-12T21:40:43.366Z,5.67
2019-02-12T21:43:10.610Z,6.83
2019-02-12T21:45:37.859Z,11.50
2019-02-12T21:48:05.122Z,7.70
2019-02-12T21:50:32.361Z,9.03
2019-02-12T21:52:59.636Z,6.93
2019-02-12T21:55:27.006Z,10.00
2019-02-12T21:57:54.275Z,9.60
2019-02-12T22:00:22.007Z,9.10
2019-02-12T22:02:49.338Z,4.53
2019-02-12T22:05:16.852Z,5.03
2019-02-12T22:07:44.124Z,5.30
2019-02-12T22:10:21.878Z,10.13
2019-02-12T22:12:49.155Z,7.00
2019-02-12T22:15:16.691Z,7.70
2019-02-12T22:17:43.933Z,10.40
2019-02-12T22:20:15.755Z,6.47
2019-02-12T22:22:43.286Z,12.90
2019-02-12T22:25:10.607Z,6.30
2019-02-12T22:27:40.430Z,8.63
2019-02-12T22:30:08.446Z,11.03
2019-02-12T22:32:35.959Z,9.60
2019-02-12T22:35:03.304Z,10.17
2019-02-12T22:37:30.574Z,8.77
2019-02-12T22:39:57.826Z,10.10
2019-02-12T22:42:25.105Z,7.00
2019-02-12T22:44:52.352Z,6.33
2019-02-12T22:47:19.594Z,7.90
2019-02-12T22:49:47.120Z,6.63
2019-02-12T22:52:14.665Z,7.00
2019-02-12T22:54:41.910Z,7.10
2019-02-12T22:57:09.426Z,7.10
2019-02-12T22:59:36.677Z,12.90
2019-02-12T23:02:04.082Z,5.97
2019-02-12T23:04:31.352Z,9.70
2019-02-12T23:06:58.593Z,8.53
2019-02-12T23:09:25.858Z,9.23
2019-02-12T23:11:53.366Z,5.33
2019-02-12T23:14:20.681Z,6.60
2019-02-12T23:16:47.964Z,9.40
2019-02-12T23:19:15.235Z,8.20
2019-02-12T23:21:42.482Z,8.00
2019-02-12T23:24:09.754Z,6.87
2019-02-12T23:26:37.043Z,11.10
2019-02-12T23:29:04.286Z,8.13
2019-02-12T23:31:31.810Z,10.43
2019-02-12T23:33:59.090Z,22.53
2019-02-12T23:36:26.614Z,13.47
2019-02-12T23:38:53.866Z,8.70
2019-02-12T23:41:21.138Z,5.93
2019-02-12T23:43:48.395Z,9.50
2019-02-12T23:46:16.257Z,7.67
2019-02-12T23:48:43.791Z,10.63
2019-02-12T23:51:11.057Z,12.23
2019-02-12T23:53:38.395Z,7.77
2019-02-12T23:56:05.676Z,7.17
2019-02-12T23:58:32.909Z,8.27
